Terminal Aerodrome Forecast
Issued by NWS

Home | Current Version | Previous Version | Text Only | Print | Product List | Glossary On
Versions: 1 2 3 4 5 6 7 8 9 10 11 12 13 14
000
FTUS46 KSGX 232325
TAFSNA
TAF
KSNA 232325Z 2400/2424 21011KT P6SM FEW008
     FM240300 20005KT P6SM FEW008
     FM240900 16005KT 5SM BR OVC007
     FM241500 16005KT P6SM OVC010
     FM241700 18005KT P6SM SCT012
     FM241900 21013G18KT P6SM SCT012=

USA.gov is the U.S. government's official web portal to all federal, state and local government web resources and services.